Brighton, New York
Current Conditions -  °F | °C
As of 10:54 AM on Saturday 20 Dec 2014 (Local Time) from KROC Reporting Station
Overcast Overcast  
Wind Chill: 24°   Ceiling: 2000
Heat Index: 30°   Visibility: 10mi
Dew Point: 22°   Wind: 6mph
Humidity: 72%   Direction: 270°W
Pressure: 30.3"   Gusts: NA
Location:  43.13°N, 77.57°W
Report Text: KROC 201554Z 27005KT 10SM OVC020 M01/M06 A3030 RMK AO2 SLP270 T10111056
Loading
Personal Weather Stations






























Interactive Weather Map New forecast layout! Learn more

10-Day Weather Forecast

Advertisements
Track Severe Weather on mobile